Time;durP1;ratioP1;P1;durP2;ratioP2;P2;SDS_P1;SDS_P2;PMS_P1;PMS_P2;Temp;Humidity;BMP_temperature;BMP_pressure;BME280_temperature;BME280_humidity;BME280_pressure;Samples;Min_cycle;Max_cycle;Signal;HPM_P1;HPM_P2
2021/05/06 00:34:02;;;;;;;;;;;;;;;20.16;66.19;100997.25;5129830;27;1099;-68
2021/05/06 00:36:48;;;;;;;;;;;;;;;20.16;66.04;100985.81;5130305;27;1929;-67
2021/05/06 00:39:40;;;;;;;;;;;;;;;20.16;66.16;100983.19;5129288;27;1271;-66
2021/05/06 01:00:15;;;;;;;;;;;;;;;20.15;66.17;100965.63;5129701;28;1263;-68
2021/05/06 01:06:11;;;;;;;;;;;;;;;20.13;66.11;100968.34;5128905;28;1369;-67
2021/05/06 01:09:02;;;;;;;;;;;;;;;20.12;65.97;100977.22;5114069;28;1028;-68
2021/05/06 01:11:54;;;;;;;;;;;;;;;20.13;65.80;100970.13;5129790;28;1397;-67
2021/05/06 01:14:39;;;;;;;;;;;;;;;20.13;66.09;100972.78;5129829;28;1261;-68
2021/05/06 01:17:24;;;;;;;;;;;;;;;20.13;65.91;100978.06;5129392;28;1965;-68
2021/05/06 01:20:10;;;;;;;;;;;;;;;20.12;65.94;100990.44;5129480;28;1305;-68
2021/05/06 01:22:55;;;;;;;;;;;;;;;20.12;65.95;100990.44;5113898;28;1052;-68
2021/05/06 01:25:47;;;;;;;;;;;;;;;20.12;65.72;100998.38;5129388;28;1329;-68
2021/05/06 01:28:36;;;;;;;;;;;;;;;20.12;65.95;100994.91;5129265;28;1137;-67
2021/05/06 01:31:24;;;;;;;;;;;;;;;20.05;65.91;100981.19;5129338;28;1277;-68
2021/05/06 01:37:17;;;;;;;;;;;;;;;20.11;65.87;100991.41;5129665;28;1933;-68
2021/05/06 01:43:24;;;;;;;;;;;;;;;20.11;65.92;100990.53;5129252;28;1062;-67
2021/05/06 02:01:07;;;;;;;;;;;;;;;20.09;65.91;100985.31;5132846;27;1359;-67
2021/05/06 02:03:52;;;;;;;;;;;;;;;20.09;65.69;100987.97;5132928;27;1081;-67
2021/05/06 02:06:38;;;;;;;;;;;;;;;20.10;65.78;100989.69;5132991;27;1224;-68
2021/05/06 02:09:22;;;;;;;;;;;;;;;20.09;65.88;100989.78;5132903;27;1157;-67
2021/05/06 02:12:09;;;;;;;;;;;;;;;20.09;65.89;100982.69;5133031;27;702;-67
2021/05/06 02:15:04;;;;;;;;;;;;;;;20.09;66.14;100982.69;5132976;27;1362;-67
2021/05/06 02:17:49;;;;;;;;;;;;;;;20.08;66.00;100988.94;5116934;27;1126;-67
2021/05/06 02:20:34;;;;;;;;;;;;;;;20.09;66.14;100981.84;5116791;27;1267;-67
2021/05/06 02:23:18;;;;;;;;;;;;;;;20.08;66.00;100988.06;5132521;27;971;-67
2021/05/06 02:26:03;;;;;;;;;;;;;;;20.08;66.04;100990.72;5116677;27;1320;-67
2021/05/06 02:28:48;;;;;;;;;;;;;;;20.08;65.97;100996.88;5132274;27;1189;-67
2021/05/06 02:31:33;;;;;;;;;;;;;;;20.08;66.15;100996.00;5131909;27;1280;-68
2021/05/06 02:34:18;;;;;;;;;;;;;;;20.08;66.14;100991.56;5132298;27;978;-68
2021/05/06 02:37:03;;;;;;;;;;;;;;;20.08;65.95;100999.50;5132256;27;1960;-68
2021/05/06 02:39:48;;;;;;;;;;;;;;;20.08;66.23;100993.38;5132494;27;1256;-68
2021/05/06 02:42:32;;;;;;;;;;;;;;;20.07;66.19;100987.22;5116805;27;723;-68
2021/05/06 02:45:17;;;;;;;;;;;;;;;20.08;66.21;100996.00;5116663;27;1339;-68
2021/05/06 02:48:03;;;;;;;;;;;;;;;20.08;66.27;100991.56;5131815;27;1348;-68
2021/05/06 02:50:55;;;;;;;;;;;;;;;20.07;66.32;101000.44;5131925;27;1271;-68
2021/05/06 02:53:48;;;;;;;;;;;;;;;20.06;66.23;101001.38;5131964;27;1073;-68
2021/05/06 03:02:58;;;;;;;;;;;;;;;20.07;66.39;100989.84;5131551;27;1056;-68
2021/05/06 03:05:47;;;;;;;;;;;;;;;20.07;66.05;100989.84;5116054;27;1302;-68
2021/05/06 03:08:36;;;;;;;;;;;;;;;20.07;66.42;100987.22;5115857;27;1138;-68
2021/05/06 03:23:23;;;;;;;;;;;;;;;20.05;66.41;100970.59;5131395;27;1131;-68
2021/05/06 03:26:07;;;;;;;;;;;;;;;20.07;66.44;100973.13;5131557;27;1252;-68
2021/05/06 03:28:55;;;;;;;;;;;;;;;20.06;66.41;100972.28;5131566;27;1108;-67
2021/05/06 03:46:54;;;;;;;;;;;;;;;20.06;66.24;100971.44;5107022;27;1225;-68
2021/05/06 04:26:19;;;;;;;;;;;;;;;20.02;66.48;100946.97;5130906;27;1280;-68
2021/05/06 04:38:09;;;;;;;;;;;;;;;20.03;66.28;100934.63;5129992;27;1125;-68
2021/05/06 04:44:56;;;;;;;;;;;;;;;20.02;66.39;100939.06;5129705;27;1070;-67
2021/05/06 05:04:55;;;;;;;;;;;;;;;20.02;66.36;100952.28;5129998;28;1271;-67
2021/05/06 05:07:44;;;;;;;;;;;;;;;20.02;66.35;100946.97;5113812;28;1089;-67
2021/05/06 05:14:25;;;;;;;;;;;;;;;20.02;66.47;100949.63;5129676;28;943;-69
2021/05/06 05:28:13;;;;;;;;;;;;;;;20.03;66.28;100967.16;5133926;27;1548;-68
2021/05/06 05:30:58;;;;;;;;;;;;;;;20.02;66.53;100969.91;5143676;27;1311;-67
2021/05/06 05:33:50;;;;;;;;;;;;;;;20.02;66.58;100962.00;5154469;27;1079;-66
2021/05/06 05:36:35;;;;;;;;;;;;;;;20.01;66.55;100974.34;5153186;27;1906;-69
2021/05/06 05:39:34;;;;;;;;;;;;;;;20.04;66.65;100968.88;5153197;27;1085;-68
2021/05/06 05:46:00;;;;;;;;;;;;;;;20.08;66.58;100978.34;5153050;27;1267;-70
2021/05/06 05:54:36;;;;;;;;;;;;;;;20.11;66.72;100985.25;5152804;27;1342;-66
2021/05/06 05:57:21;;;;;;;;;;;;;;;20.08;66.78;100981.00;5152770;27;1905;-67
2021/05/06 06:00:08;;;;;;;;;;;;;;;20.16;66.99;100978.75;5152581;27;1270;-67
2021/05/06 06:02:52;;;;;;;;;;;;;;;20.16;66.59;100978.75;5152535;27;1103;-67
2021/05/06 06:05:38;;;;;;;;;;;;;;;20.14;66.66;100988.56;5152526;27;1278;-64
2021/05/06 06:08:25;;;;;;;;;;;;;;;20.10;66.72;100994.97;5122661;27;1070;-66
2021/05/06 06:11:10;;;;;;;;;;;;;;;20.10;66.80;100989.69;5152817;27;1370;-66
2021/05/06 06:13:55;;;;;;;;;;;;;;;20.10;66.79;100994.13;5153293;27;1129;-67
2021/05/06 06:16:42;;;;;;;;;;;;;;;20.11;66.83;100990.53;5153218;27;1972;-66
2021/05/06 06:19:34;;;;;;;;;;;;;;;20.10;66.80;100988.81;5153512;27;1102;-68
2021/05/06 06:22:21;;;;;;;;;;;;;;;20.09;66.84;100993.25;5137478;27;623;-67
2021/05/06 06:25:06;;;;;;;;;;;;;;;20.09;66.82;101003.00;5152561;27;1235;-67
2021/05/06 06:27:51;;;;;;;;;;;;;;;20.08;66.85;100994.22;5136693;27;982;-68
2021/05/06 06:30:36;;;;;;;;;;;;;;;20.08;66.61;100996.88;5153138;27;1282;-68
2021/05/06 06:33:21;;;;;;;;;;;;;;;20.13;66.78;100992.16;5152516;27;1079;-68
2021/05/06 06:36:06;;;;;;;;;;;;;;;20.17;66.37;100996.31;5152494;27;1901;-68
2021/05/06 06:38:51;;;;;;;;;;;;;;;20.13;66.76;100994.78;5131851;27;1162;-67
2021/05/06 06:41:35;;;;;;;;;;;;;;;20.13;66.81;100992.16;5152065;27;1271;-69
2021/05/06 06:44:26;;;;;;;;;;;;;;;20.14;66.89;100996.50;5116247;27;967;-66
2021/05/06 06:47:11;;;;;;;;;;;;;;;20.16;67.00;100981.38;5118048;27;1586;-66
2021/05/06 06:49:55;;;;;;;;;;;;;;;20.22;66.95;100993.38;5144966;27;1361;-68
2021/05/06 06:52:40;;;;;;;;;;;;;;;20.25;66.97;100992.34;5152340;27;1088;-69
2021/05/06 06:55:25;;;;;;;;;;;;;;;20.22;66.75;100997.81;5145045;27;1390;-69
2021/05/06 06:58:12;;;;;;;;;;;;;;;20.24;67.18;101006.53;5135138;27;1906;-69
2021/05/06 07:00:57;;;;;;;;;;;;;;;20.32;66.86;101002.53;5115282;27;1401;-67
2021/05/06 07:03:43;;;;;;;;;;;;;;;20.24;66.81;100995.97;5132337;27;1703;-65
2021/05/06 07:06:28;;;;;;;;;;;;;;;20.21;66.97;100999.66;5143573;27;1362;-64
2021/05/06 07:09:13;;;;;;;;;;;;;;;20.22;66.91;101005.75;5130837;27;1371;-65
2021/05/06 07:11:58;;;;;;;;;;;;;;;20.19;66.89;101004.16;5137884;27;1378;-64
2021/05/06 07:14:43;;;;;;;;;;;;;;;20.20;66.81;101011.16;5135649;27;1527;-65
2021/05/06 07:17:29;;;;;;;;;;;;;;;20.19;67.09;101015.59;5128984;27;1910;-67
2021/05/06 07:20:16;;;;;;;;;;;;;;;20.23;66.53;101010.97;5132115;27;1346;-65
2021/05/06 07:23:01;;;;;;;;;;;;;;;20.22;66.94;101011.91;5123197;27;1007;-65
2021/05/06 07:25:48;;;;;;;;;;;;;;;20.21;66.81;101002.28;5113229;27;1385;-64
2021/05/06 07:28:36;;;;;;;;;;;;;;;20.22;66.93;101008.41;5113179;27;1072;-65
2021/05/06 07:31:24;;;;;;;;;;;;;;;20.22;66.45;101006.63;5113342;27;1268;-66
2021/05/06 07:34:12;;;;;;;;;;;;;;;20.23;66.67;101010.13;5128720;27;1155;-66
2021/05/06 07:36:59;;;;;;;;;;;;;;;20.22;66.96;101003.13;5138670;27;1905;-64
2021/05/06 07:39:45;;;;;;;;;;;;;;;20.21;67.07;101015.50;5128938;27;1298;-66
2021/05/06 07:42:33;;;;;;;;;;;;;;;20.21;66.88;101004.06;5128499;27;893;-65
2021/05/06 07:45:21;;;;;;;;;;;;;;;20.20;67.03;101000.56;5127540;27;1543;-64
2021/05/06 07:48:07;;;;;;;;;;;;;;;20.21;67.07;101001.44;5128465;27;1232;-65
2021/05/06 07:50:57;;;;;;;;;;;;;;;20.22;67.04;101000.47;5128488;27;1392;-66
2021/05/06 07:53:49;;;;;;;;;;;;;;;20.22;67.08;100995.19;5145295;27;1076;-66
2021/05/06 07:56:37;;;;;;;;;;;;;;;20.22;67.10;100992.53;5130500;27;1910;-65
2021/05/06 07:59:23;;;;;;;;;;;;;;;20.31;67.10;100982.28;5128789;27;1135;-66
2021/05/06 08:02:08;;;;;;;;;;;;;;;20.31;67.40;100981.44;5132049;27;1020;-69
2021/05/06 08:04:53;;;;;;;;;;;;;;;20.29;66.66;100983.34;5150300;27;1290;-67
2021/05/06 08:07:38;;;;;;;;;;;;;;;20.28;66.85;100982.47;5126312;27;1023;-68
2021/05/06 08:10:23;;;;;;;;;;;;;;;20.34;67.31;100991.84;5118777;27;1370;-67
2021/05/06 08:13:08;;;;;;;;;;;;;;;20.34;66.80;100981.25;5137363;27;1145;-71
2021/05/06 08:15:53;;;;;;;;;;;;;;;20.48;66.96;100979.50;5129233;27;1295;-67
2021/05/06 08:18:38;;;;;;;;;;;;;;;20.48;67.21;100978.66;5128623;27;1220;-68
2021/05/06 08:21:24;;;;;;;;;;;;;;;20.43;66.89;100975.41;5128868;27;1287;-68
2021/05/06 08:24:09;;;;;;;;;;;;;;;20.38;66.83;100969.56;5128784;27;1188;-66
2021/05/06 08:26:54;;;;;;;;;;;;;;;20.35;67.00;100975.88;5129485;27;1283;-66
2021/05/06 08:29:39;;;;;;;;;;;;;;;20.35;66.86;100970.59;5149359;27;1239;-66
2021/05/06 08:32:24;;;;;;;;;;;;;;;20.35;66.95;100972.38;5120315;27;1501;-66
2021/05/06 08:35:09;;;;;;;;;;;;;;;20.35;66.89;100973.25;5128192;27;1196;-67
2021/05/06 08:37:54;;;;;;;;;;;;;;;20.30;66.72;100958.59;5142137;27;1978;-67
2021/05/06 08:40:38;;;;;;;;;;;;;;;20.36;66.69;100963.50;5148952;27;1287;-67
2021/05/06 08:43:27;;;;;;;;;;;;;;;20.36;66.62;100959.09;5147595;27;1144;-67
2021/05/06 08:46:12;;;;;;;;;;;;;;;20.37;66.62;100960.75;5148775;27;1365;-65
2021/05/06 08:49:17;;;;;;;;;;;;;;;20.41;66.86;100950.84;5134608;27;1448;-66
2021/05/06 08:52:06;;;;;;;;;;;;;;;20.38;66.83;100949.25;5148873;27;983;-68
2021/05/06 08:54:52;;;;;;;;;;;;;;;20.41;66.78;100948.22;5149202;27;1247;-69
2021/05/06 08:57:37;;;;;;;;;;;;;;;20.42;66.20;100945.47;5148651;27;1906;-68
2021/05/06 09:00:22;;;;;;;;;;;;;;;20.40;66.43;100943.84;5148538;27;1275;-67
2021/05/06 09:03:09;;;;;;;;;;;;;;;20.38;66.65;100941.31;5137384;27;1094;-65
2021/05/06 09:06:08;;;;;;;;;;;;;;;20.37;66.64;100942.25;5112524;28;1322;-67
2021/05/06 09:08:57;;;;;;;;;;;;;;;20.37;66.60;100944.03;5127941;27;1043;-67
2021/05/06 09:11:43;;;;;;;;;;;;;;;20.36;66.45;100937.91;5128420;27;1382;-66
2021/05/06 09:14:45;;;;;;;;;;;;;;;20.37;66.52;100938.75;5137275;27;1133;-66
2021/05/06 09:17:34;;;;;;;;;;;;;;;20.37;66.71;100944.03;5127457;27;1967;-66
2021/05/06 09:20:24;;;;;;;;;;;;;;;20.36;66.43;100937.06;5128164;28;1299;-66
2021/05/06 09:23:09;;;;;;;;;;;;;;;20.36;66.36;100942.34;5127510;27;1082;-65
2021/05/06 09:25:54;;;;;;;;;;;;;;;20.40;66.58;100938.56;5128022;28;1275;-67
2021/05/06 09:28:38;;;;;;;;;;;;;;;20.45;66.75;100936.50;5127586;27;1016;-69
2021/05/06 09:31:24;;;;;;;;;;;;;;;20.40;66.92;100927.97;5127543;28;1247;-70
2021/05/06 09:34:11;;;;;;;;;;;;;;;20.46;66.48;100930.25;5132164;27;1494;-67
2021/05/06 09:36:58;;;;;;;;;;;;;;;20.52;66.95;100927.22;5117198;27;1906;-69
2021/05/06 09:39:42;;;;;;;;;;;;;;;20.48;66.81;100923.09;5132816;27;1260;-68
2021/05/06 09:42:55;;;;;;;;;;;;;;;20.44;66.87;100922.41;5141911;27;1272;-65
2021/05/06 09:45:39;;;;;;;;;;;;;;;20.47;66.63;100924.00;5129390;27;1437;-69
2021/05/06 09:48:25;;;;;;;;;;;;;;;20.44;66.58;100919.78;5130997;27;1233;-69
2021/05/06 09:51:10;;;;;;;;;;;;;;;20.52;67.23;100919.28;5127624;27;1333;-70
2021/05/06 09:53:58;;;;;;;;;;;;;;;20.60;67.01;100914.38;5127242;28;1037;-68
2021/05/06 09:56:43;;;;;;;;;;;;;;;20.62;66.72;100917.78;5137223;27;1893;-71
2021/05/06 09:59:33;;;;;;;;;;;;;;;20.57;67.17;100918.09;5128357;27;1129;-67
2021/05/06 10:02:19;;;;;;;;;;;;;;;20.57;66.72;100915.44;5129900;27;1287;-70
2021/05/06 10:05:11;;;;;;;;;;;;;;;20.55;66.64;100922.59;5132835;27;1359;-67
2021/05/06 10:07:56;;;;;;;;;;;;;;;20.57;67.07;100922.50;5129056;27;1153;-66
2021/05/06 10:10:41;;;;;;;;;;;;;;;20.58;67.12;100917.13;5134699;27;1264;-66
2021/05/06 10:13:26;;;;;;;;;;;;;;;20.63;66.84;100903.59;5142642;27;1130;-66
2021/05/06 10:16:12;;;;;;;;;;;;;;;20.61;66.86;100900.19;5135813;27;1981;-67
2021/05/06 10:18:57;;;;;;;;;;;;;;;20.58;66.79;100885.34;5142758;27;1322;-68
2021/05/06 10:21:43;;;;;;;;;;;;;;;20.55;66.51;100888.19;5137295;27;1275;-69
2021/05/06 10:24:29;;;;;;;;;;;;;;;20.65;67.12;100896.41;5147489;27;1132;-64
2021/05/06 10:27:15;;;;;;;;;;;;;;;20.64;66.31;100881.47;5130497;27;1015;-67
2021/05/06 10:30:02;;;;;;;;;;;;;;;20.58;66.96;100885.34;5130038;27;1279;-69
2021/05/06 10:32:47;;;;;;;;;;;;;;;20.59;66.79;100879.13;5130169;27;1120;-67
2021/05/06 10:35:32;;;;;;;;;;;;;;;20.60;66.46;100872.03;5142627;27;1307;-66
2021/05/06 10:38:18;;;;;;;;;;;;;;;20.56;66.75;100875.81;5132425;27;2000;-67
2021/05/06 10:41:22;;;;;;;;;;;;;;;20.55;66.28;100868.81;5137231;27;1341;-66
2021/05/06 10:44:06;;;;;;;;;;;;;;;20.57;66.62;100872.22;5134951;27;1263;-64
2021/05/06 10:47:01;;;;;;;;;;;;;;;20.58;66.37;100877.41;5131894;27;1287;-65
2021/05/06 10:49:46;;;;;;;;;;;;;;;20.57;66.65;100872.22;5135176;27;1553;-66
2021/05/06 10:52:37;;;;;;;;;;;;;;;20.57;66.57;100873.09;5140374;27;1132;-66
2021/05/06 10:55:40;;;;;;;;;;;;;;;20.57;66.26;100869.59;5124148;27;1351;-66
2021/05/06 10:58:26;;;;;;;;;;;;;;;20.60;66.86;100861.44;5131261;27;1906;-67
2021/05/06 11:01:14;;;;;;;;;;;;;;;20.61;66.79;100863.13;5143065;27;1366;-67
2021/05/06 11:04:03;;;;;;;;;;;;;;;20.59;66.66;100859.75;5135788;27;1648;-66
2021/05/06 11:06:48;;;;;;;;;;;;;;;20.59;66.29;100851.81;5117366;27;1277;-64
2021/05/06 11:09:33;;;;;;;;;;;;;;;20.59;66.70;100867.69;5137798;27;1528;-66
2021/05/06 11:12:20;;;;;;;;;;;;;;;20.59;66.53;100859.75;5137010;27;1575;-64
2021/05/06 11:15:06;;;;;;;;;;;;;;;20.61;67.09;100852.53;5130412;27;1310;-66
2021/05/06 11:17:51;;;;;;;;;;;;;;;20.59;66.60;100843.88;5131054;27;1961;-65
2021/05/06 11:20:37;;;;;;;;;;;;;;;20.58;66.95;100852.75;5117968;27;1287;-66
2021/05/06 11:23:22;;;;;;;;;;;;;;;20.66;67.47;100848.69;5139787;27;1101;-67
2021/05/06 11:26:09;;;;;;;;;;;;;;;20.65;66.70;100846.13;5130813;27;1311;-64
2021/05/06 11:28:53;;;;;;;;;;;;;;;20.63;66.43;100833.00;5129894;27;1179;-69
2021/05/06 11:31:45;;;;;;;;;;;;;;;20.64;66.48;100839.13;5136566;27;1287;-67
2021/05/06 11:34:32;;;;;;;;;;;;;;;20.64;66.56;100839.13;5140413;27;1212;-67
2021/05/06 11:37:18;;;;;;;;;;;;;;;20.65;66.39;100832.88;5129048;27;1970;-66
2021/05/06 11:40:16;;;;;;;;;;;;;;;20.66;66.58;100831.94;5145654;27;1272;-63
2021/05/06 11:43:01;;;;;;;;;;;;;;;20.67;66.79;100828.38;5122030;27;1719;-66
2021/05/06 11:45:45;;;;;;;;;;;;;;;20.66;66.71;100819.56;5132974;27;1679;-66
2021/05/06 11:48:33;;;;;;;;;;;;;;;20.68;66.50;100822.09;5146407;27;1371;-67
2021/05/06 11:51:28;;;;;;;;;;;;;;;20.66;67.11;100814.28;5113176;27;1386;-66
2021/05/06 11:54:20;;;;;;;;;;;;;;;20.70;66.74;100820.22;5113941;27;1146;-66
2021/05/06 11:57:05;;;;;;;;;;;;;;;20.64;66.88;100820.59;5147827;27;1905;-65
2021/05/06 11:59:49;;;;;;;;;;;;;;;20.71;66.98;100806.03;5134795;27;1390;-67
2021/05/06 12:02:34;;;;;;;;;;;;;;;20.75;67.02;100806.69;5128859;27;1038;-65
2021/05/06 12:05:19;;;;;;;;;;;;;;;20.75;66.50;100802.25;5139506;27;1287;-64
2021/05/06 12:08:05;;;;;;;;;;;;;;;20.69;66.56;100807.94;5147661;27;1129;-64
2021/05/06 12:10:50;;;;;;;;;;;;;;;20.75;66.66;100796.94;5135152;27;1283;-66
2021/05/06 12:13:36;;;;;;;;;;;;;;;20.77;66.30;100791.53;5134114;27;1203;-66
2021/05/06 12:16:24;;;;;;;;;;;;;;;20.77;66.15;100797.69;5145026;27;1893;-65
2021/05/06 12:19:12;;;;;;;;;;;;;;;20.76;65.66;100790.72;5148772;27;1096;-65
2021/05/06 12:21:59;;;;;;;;;;;;;;;20.73;65.84;100785.63;5123671;27;1572;-64
2021/05/06 12:24:45;;;;;;;;;;;;;;;20.71;65.96;100782.22;5144726;27;1224;-63
2021/05/06 12:27:31;;;;;;;;;;;;;;;20.69;65.98;100776.16;5148272;27;983;-64
2021/05/06 12:30:16;;;;;;;;;;;;;;;20.69;65.71;100778.81;5148169;27;1287;-62
2021/05/06 12:33:01;;;;;;;;;;;;;;;20.69;65.62;100776.16;5147972;27;1026;-63
2021/05/06 12:35:49;;;;;;;;;;;;;;;20.70;65.58;100777.88;5148505;27;1275;-62
2021/05/06 12:38:44;;;;;;;;;;;;;;;20.71;65.44;100787.50;5148708;27;1913;-66
2021/05/06 12:41:29;;;;;;;;;;;;;;;20.76;65.53;100782.78;5145063;27;1299;-65
2021/05/06 12:44:14;;;;;;;;;;;;;;;20.74;65.80;100782.00;5141348;27;1073;-68
2021/05/06 12:47:11;;;;;;;;;;;;;;;20.76;65.54;100769.53;5127319;27;1275;-67
2021/05/06 12:50:08;;;;;;;;;;;;;;;20.78;65.21;100769.44;5107083;28;1700;-68
2021/05/06 12:52:54;;;;;;;;;;;;;;;20.79;65.37;100764.06;5106840;28;1019;-64
2021/05/06 12:55:40;;;;;;;;;;;;;;;20.81;65.27;100771.88;5106538;28;1281;-68
2021/05/06 12:58:28;;;;;;;;;;;;;;;20.80;65.41;100773.66;5106700;28;1991;-68
2021/05/06 13:01:13;;;;;;;;;;;;;;;20.78;65.21;100765.00;5108803;28;1408;-65
2021/05/06 13:04:00;;;;;;;;;;;;;;;20.86;65.71;100767.97;5127351;28;1066;-70
2021/05/06 13:06:45;;;;;;;;;;;;;;;20.87;65.78;100758.25;5127122;28;1271;-67
2021/05/06 13:09:38;;;;;;;;;;;;;;;20.91;65.33;100757.94;5127354;28;1100;-68
2021/05/06 13:12:23;;;;;;;;;;;;;;;21.01;66.05;100758.16;5093452;28;1720;-67
2021/05/06 13:15:10;;;;;;;;;;;;;;;21.05;65.46;100764.97;5100235;28;1387;-71
2021/05/06 13:17:58;;;;;;;;;;;;;;;21.04;65.94;100760.63;5110557;28;1970;-73
2021/05/06 13:20:47;;;;;;;;;;;;;;;21.06;65.56;100750.78;5107488;28;1334;-71
2021/05/06 13:23:33;;;;;;;;;;;;;;;21.08;66.24;100752.41;5112718;28;1296;-65
2021/05/06 13:26:29;;;;;;;;;;;;;;;21.07;67.25;100747.16;5116789;28;1308;-67
2021/05/06 13:29:16;;;;;;;;;;;;;;;21.03;66.89;100738.59;5115067;28;1336;-70
2021/05/06 13:32:04;;;;;;;;;;;;;;;21.06;67.17;100742.84;5119804;28;904;-69
2021/05/06 13:34:53;;;;;;;;;;;;;;;21.04;67.01;100727.03;5126853;28;1220;-68
2021/05/06 13:37:42;;;;;;;;;;;;;;;21.05;67.32;100718.16;5120541;28;1918;-67
2021/05/06 13:40:27;;;;;;;;;;;;;;;21.03;67.32;100714.78;5119807;28;1309;-65
2021/05/06 13:43:12;;;;;;;;;;;;;;;20.94;67.59;100702.16;5108816;28;1176;-64
2021/05/06 13:45:57;;;;;;;;;;;;;;;21.01;67.05;100706.06;5110015;28;1410;-67
2021/05/06 13:48:42;;;;;;;;;;;;;;;21.00;67.24;100703.53;5110412;28;1520;-66
2021/05/06 13:51:28;;;;;;;;;;;;;;;20.99;67.50;100705.31;5110313;28;1390;-66
2021/05/06 13:54:13;;;;;;;;;;;;;;;20.99;67.16;100694.72;5110416;28;1127;-67
2021/05/06 13:56:58;;;;;;;;;;;;;;;20.97;67.37;100701.94;5109791;28;2030;-68
2021/05/06 13:59:43;;;;;;;;;;;;;;;21.00;67.43;100701.72;5109579;28;1240;-66
2021/05/06 14:02:28;;;;;;;;;;;;;;;21.01;66.90;100684.03;5109908;28;972;-65
2021/05/06 14:05:13;;;;;;;;;;;;;;;21.03;67.33;100690.09;5109843;28;1272;-67
2021/05/06 14:07:58;;;;;;;;;;;;;;;21.02;67.64;100681.28;5119499;27;1513;-66
2021/05/06 14:10:43;;;;;;;;;;;;;;;20.98;67.49;100685.06;5099522;27;1422;-65
2021/05/06 14:13:28;;;;;;;;;;;;;;;20.98;67.51;100681.56;5111617;28;1163;-65
2021/05/06 14:16:13;;;;;;;;;;;;;;;20.97;67.21;100678.09;5103835;28;1517;-66
2021/05/06 14:18:58;;;;;;;;;;;;;;;21.00;67.95;100675.25;5111141;28;1235;-67
2021/05/06 14:21:46;;;;;;;;;;;;;;;20.99;67.54;100680.63;5109549;28;1282;-67
2021/05/06 14:24:31;;;;;;;;;;;;;;;21.02;67.60;100670.69;5109982;28;1473;-68
2021/05/06 14:27:17;;;;;;;;;;;;;;;21.07;67.44;100659.78;5112277;27;1237;-68
2021/05/06 14:30:02;;;;;;;;;;;;;;;21.05;67.25;100662.53;5120021;27;1376;-70
2021/05/06 14:32:47;;;;;;;;;;;;;;;21.07;67.01;100657.97;5113908;27;1048;-68
2021/05/06 14:35:34;;;;;;;;;;;;;;;21.05;67.98;100657.25;5109267;28;1346;-69
2021/05/06 14:38:19;;;;;;;;;;;;;;;21.05;68.00;100661.69;5102027;27;1906;-70
2021/05/06 14:41:04;;;;;;;;;;;;;;;21.05;67.12;100665.19;5109442;27;1391;-70
2021/05/06 14:43:49;;;;;;;;;;;;;;;21.03;67.37;100664.44;5109965;28;972;-71
2021/05/06 14:46:34;;;;;;;;;;;;;;;21.01;67.13;100650.44;5109214;28;1275;-70
2021/05/06 14:49:19;;;;;;;;;;;;;;;21.02;67.20;100652.16;5128657;27;1661;-68
2021/05/06 14:52:04;;;;;;;;;;;;;;;21.01;67.54;100647.78;5129381;27;980;-70
2021/05/06 14:54:49;;;;;;;;;;;;;;;21.02;66.92;100644.22;5114144;27;1263;-71
2021/05/06 14:57:34;;;;;;;;;;;;;;;21.00;67.14;100659.38;5129354;27;1968;-71
2021/05/06 15:00:21;;;;;;;;;;;;;;;21.00;67.44;100643.47;5129986;27;1365;-71
2021/05/06 15:03:05;;;;;;;;;;;;;;;21.00;67.34;100648.78;5129842;27;1038;-70
2021/05/06 15:05:50;;;;;;;;;;;;;;;21.00;67.17;100650.56;5129784;27;1291;-73
2021/05/06 15:08:41;;;;;;;;;;;;;;;20.98;67.72;100649.81;5129545;27;1133;-72
2021/05/06 15:11:26;;;;;;;;;;;;;;;20.99;67.30;100640.91;5133878;27;1357;-72
2021/05/06 15:14:11;;;;;;;;;;;;;;;20.98;67.61;100640.06;5133477;27;1543;-72
2021/05/06 15:16:55;;;;;;;;;;;;;;;20.98;67.75;100634.75;5129283;27;1905;-70
2021/05/06 15:19:41;;;;;;;;;;;;;;;20.97;67.50;100638.38;5128995;27;1287;-69
2021/05/06 15:22:25;;;;;;;;;;;;;;;20.96;67.81;100641.97;5129128;27;984;-70
2021/05/06 15:25:11;;;;;;;;;;;;;;;20.96;67.87;100636.69;5129007;27;1396;-70
2021/05/06 15:27:56;;;;;;;;;;;;;;;20.97;67.89;100638.38;5128352;27;1121;-68
2021/05/06 15:30:41;;;;;;;;;;;;;;;21.08;67.59;100641.19;5137895;27;1398;-70
2021/05/06 15:33:26;;;;;;;;;;;;;;;21.02;67.82;100638.91;5143455;27;1033;-71
2021/05/06 15:36:12;;;;;;;;;;;;;;;21.08;67.35;100643.81;5136306;27;1413;-71
2021/05/06 15:39:00;;;;;;;;;;;;;;;21.06;66.27;100632.47;5144449;27;1970;-71
2021/05/06 15:41:45;;;;;;;;;;;;;;;21.02;66.91;100644.22;5140384;27;1326;-71
2021/05/06 15:44:30;;;;;;;;;;;;;;;20.98;66.42;100647.16;5138672;27;1279;-70
2021/05/06 15:47:15;;;;;;;;;;;;;;;20.91;65.20;100641.44;5113862;27;1661;-72
2021/05/06 15:50:03;;;;;;;;;;;;;;;20.87;65.11;100642.59;5137714;27;1529;-68
2021/05/06 15:52:49;;;;;;;;;;;;;;;20.87;64.90;100644.38;5140110;27;1488;-68
2021/05/06 15:55:34;;;;;;;;;;;;;;;20.89;64.91;100639.81;5139702;27;1474;-69
2021/05/06 15:58:19;;;;;;;;;;;;;;;20.86;65.08;100646.19;5131221;27;2321;-69
2021/05/06 16:01:04;;;;;;;;;;;;;;;20.86;65.01;100642.69;5118950;27;1467;-70
2021/05/06 16:03:53;;;;;;;;;;;;;;;20.86;64.92;100646.19;5134881;27;1627;-70
2021/05/06 16:06:38;;;;;;;;;;;;;;;20.84;64.80;100640.16;5119281;27;1592;-70
2021/05/06 16:09:23;;;;;;;;;;;;;;;20.85;64.60;100639.22;5140015;27;1060;-70
2021/05/06 16:12:08;;;;;;;;;;;;;;;20.87;64.99;100637.31;5130569;27;1165;-71
2021/05/06 16:14:53;;;;;;;;;;;;;;;20.88;64.82;100631.06;5120130;27;1402;-69
2021/05/06 16:17:38;;;;;;;;;;;;;;;21.02;66.90;100635.41;5146686;27;1905;-70
2021/05/06 16:20:32;;;;;;;;;;;;;;;21.03;65.09;100637.97;5112370;27;1421;-70
2021/05/06 16:23:17;;;;;;;;;;;;;;;20.94;65.18;100630.66;5133784;27;1060;-67
2021/05/06 16:26:01;;;;;;;;;;;;;;;20.97;65.40;100638.38;5150267;27;1291;-67
2021/05/06 16:28:46;;;;;;;;;;;;;;;20.99;65.23;100635.63;5150761;27;1099;-68
2021/05/06 16:31:31;;;;;;;;;;;;;;;20.95;64.91;100640.28;5138889;27;1572;-71
2021/05/06 16:34:22;;;;;;;;;;;;;;;20.97;65.32;100638.38;5117798;27;1816;-70
2021/05/06 16:37:13;;;;;;;;;;;;;;;20.85;65.52;100639.22;5138555;27;1926;-70
2021/05/06 16:43:26;;;;;;;;;;;;;;;20.83;65.35;100654.34;5129050;27;1130;-70
2021/05/06 16:46:14;;;;;;;;;;;;;;;20.79;65.17;100654.66;5129086;27;1181;-71
2021/05/06 16:48:59;;;;;;;;;;;;;;;20.76;65.35;100642.47;5129875;27;1668;-70
2021/05/06 16:51:44;;;;;;;;;;;;;;;20.76;65.22;100649.56;5129204;27;1378;-72
2021/05/06 16:54:29;;;;;;;;;;;;;;;20.72;65.04;100651.56;5113956;27;1097;-70
2021/05/06 16:57:14;;;;;;;;;;;;;;;20.82;66.03;100655.31;5128353;27;1974;-68
2021/05/06 17:00:01;;;;;;;;;;;;;;;20.77;64.85;100644.16;5112318;27;1239;-71
2021/05/06 17:02:49;;;;;;;;;;;;;;;20.70;64.88;100640.25;5111546;27;1003;-70
2021/05/06 17:05:34;;;;;;;;;;;;;;;20.70;64.66;100642.88;5111153;28;1372;-70
2021/05/06 17:08:25;;;;;;;;;;;;;;;20.69;64.79;100643.81;5127011;27;1540;-70
2021/05/06 17:11:10;;;;;;;;;;;;;;;20.66;65.02;100639.59;5127175;27;1296;-70
2021/05/06 17:13:55;;;;;;;;;;;;;;;20.74;64.80;100636.41;5129814;28;1185;-71
2021/05/06 17:16:39;;;;;;;;;;;;;;;20.69;64.71;100643.81;5129104;27;1259;-70
2021/05/06 17:19:24;;;;;;;;;;;;;;;20.84;66.23;100639.31;5133825;27;1015;-70
2021/05/06 17:22:09;;;;;;;;;;;;;;;21.05;64.44;100638.69;5133118;27;1020;-70
2021/05/06 17:24:54;;;;;;;;;;;;;;;21.03;63.64;100643.28;5133834;27;1353;-71
2021/05/06 17:27:40;;;;;;;;;;;;;;;21.02;63.90;100643.34;5131873;27;1022;-73
2021/05/06 17:30:25;;;;;;;;;;;;;;;20.98;63.65;100637.41;5131189;27;1303;-72
2021/05/06 17:33:10;;;;;;;;;;;;;;;20.94;63.61;100641.25;5133065;27;1198;-72
2021/05/06 17:35:55;;;;;;;;;;;;;;;20.92;63.84;100639.63;5133250;27;1254;-72
2021/05/06 17:38:40;;;;;;;;;;;;;;;20.91;63.73;100646.75;5133419;27;1969;-71
2021/05/06 17:41:25;;;;;;;;;;;;;;;20.89;63.50;100638.03;5136630;27;1275;-72
2021/05/06 17:44:10;;;;;;;;;;;;;;;20.89;63.49;100645.97;5138543;27;1053;-73
2021/05/06 17:47:03;;;;;;;;;;;;;;;20.89;63.50;100645.97;5153502;27;1277;-73
2021/05/06 17:49:48;;;;;;;;;;;;;;;20.91;63.44;100644.09;5137838;27;1295;-69
2021/05/06 17:52:33;;;;;;;;;;;;;;;20.87;63.41;100649.69;5137417;27;1030;-70